sensor_id;sensor_type;location;lat;lon;timestamp;P1;durP1;ratioP1;P2;durP2;ratioP2
289;SDS011;13193;48.874;9.086;2022-07-23T00:02:06;12.53;;;6.87;;
289;SDS011;13193;48.874;9.086;2022-07-23T00:04:35;6.80;;;5.27;;
289;SDS011;13193;48.874;9.086;2022-07-23T00:07:00;11.20;;;7.70;;
289;SDS011;13193;48.874;9.086;2022-07-23T00:09:26;9.57;;;6.50;;
289;SDS011;13193;48.874;9.086;2022-07-23T00:11:53;11.67;;;6.03;;
289;SDS011;13193;48.874;9.086;2022-07-23T00:14:19;16.67;;;6.17;;
289;SDS011;13193;48.874;9.086;2022-07-23T00:16:45;10.17;;;5.70;;
289;SDS011;13193;48.874;9.086;2022-07-23T00:19:10;5.73;;;5.13;;
289;SDS011;13193;48.874;9.086;2022-07-23T00:21:36;7.73;;;5.33;;
289;SDS011;13193;48.874;9.086;2022-07-23T00:24:01;9.73;;;6.17;;
289;SDS011;13193;48.874;9.086;2022-07-23T00:26:27;10.50;;;6.10;;
289;SDS011;13193;48.874;9.086;2022-07-23T00:28:53;8.17;;;5.30;;
289;SDS011;13193;48.874;9.086;2022-07-23T00:31:19;12.40;;;6.23;;
289;SDS011;13193;48.874;9.086;2022-07-23T00:33:44;12.03;;;5.80;;
289;SDS011;13193;48.874;9.086;2022-07-23T00:36:10;7.97;;;5.53;;
289;SDS011;13193;48.874;9.086;2022-07-23T00:38:35;9.63;;;5.87;;
289;SDS011;13193;48.874;9.086;2022-07-23T00:41:03;10.17;;;6.17;;
289;SDS011;13193;48.874;9.086;2022-07-23T00:43:29;8.60;;;4.83;;
289;SDS011;13193;48.874;9.086;2022-07-23T00:45:55;9.30;;;5.47;;
289;SDS011;13193;48.874;9.086;2022-07-23T00:48:20;11.63;;;4.90;;
289;SDS011;13193;48.874;9.086;2022-07-23T00:50:46;9.60;;;6.33;;
289;SDS011;13193;48.874;9.086;2022-07-23T00:53:12;8.20;;;5.77;;
289;SDS011;13193;48.874;9.086;2022-07-23T00:55:38;6.40;;;4.70;;
289;SDS011;13193;48.874;9.086;2022-07-23T00:58:04;9.17;;;5.97;;
289;SDS011;13193;48.874;9.086;2022-07-23T01:00:29;9.03;;;5.70;;
289;SDS011;13193;48.874;9.086;2022-07-23T01:02:55;8.60;;;6.27;;
289;SDS011;13193;48.874;9.086;2022-07-23T01:05:21;9.77;;;5.03;;
289;SDS011;13193;48.874;9.086;2022-07-23T01:07:49;8.40;;;5.57;;
289;SDS011;13193;48.874;9.086;2022-07-23T01:10:16;9.93;;;5.50;;
289;SDS011;13193;48.874;9.086;2022-07-23T01:13:00;6.37;;;5.10;;
289;SDS011;13193;48.874;9.086;2022-07-23T01:15:31;11.67;;;5.57;;
289;SDS011;13193;48.874;9.086;2022-07-23T01:17:58;8.37;;;6.40;;
289;SDS011;13193;48.874;9.086;2022-07-23T01:20:24;7.70;;;5.37;;
289;SDS011;13193;48.874;9.086;2022-07-23T01:22:50;8.80;;;5.37;;
289;SDS011;13193;48.874;9.086;2022-07-23T01:25:16;8.30;;;5.67;;
289;SDS011;13193;48.874;9.086;2022-07-23T01:27:42;6.70;;;4.90;;
289;SDS011;13193;48.874;9.086;2022-07-23T01:30:08;8.20;;;5.10;;
289;SDS011;13193;48.874;9.086;2022-07-23T01:32:35;7.53;;;6.10;;
289;SDS011;13193;48.874;9.086;2022-07-23T01:35:00;9.07;;;6.50;;
289;SDS011;13193;48.874;9.086;2022-07-23T01:37:26;10.93;;;6.20;;
289;SDS011;13193;48.874;9.086;2022-07-23T01:39:54;10.00;;;5.80;;
289;SDS011;13193;48.874;9.086;2022-07-23T01:42:19;10.50;;;5.83;;
289;SDS011;13193;48.874;9.086;2022-07-23T01:44:45;9.27;;;6.00;;
289;SDS011;13193;48.874;9.086;2022-07-23T01:47:13;9.67;;;5.83;;
289;SDS011;13193;48.874;9.086;2022-07-23T01:49:38;9.37;;;5.70;;
289;SDS011;13193;48.874;9.086;2022-07-23T01:52:04;9.73;;;5.70;;
289;SDS011;13193;48.874;9.086;2022-07-23T01:54:35;9.90;;;5.47;;
289;SDS011;13193;48.874;9.086;2022-07-23T01:57:03;9.77;;;6.30;;
289;SDS011;13193;48.874;9.086;2022-07-23T01:59:32;10.60;;;7.27;;
289;SDS011;13193;48.874;9.086;2022-07-23T02:02:05;9.80;;;6.27;;
289;SDS011;13193;48.874;9.086;2022-07-23T02:04:31;8.03;;;5.63;;
289;SDS011;13193;48.874;9.086;2022-07-23T02:07:00;9.27;;;6.13;;
289;SDS011;13193;48.874;9.086;2022-07-23T02:09:30;8.63;;;5.77;;
289;SDS011;13193;48.874;9.086;2022-07-23T02:11:59;10.57;;;6.07;;
289;SDS011;13193;48.874;9.086;2022-07-23T02:14:27;8.93;;;5.80;;
289;SDS011;13193;48.874;9.086;2022-07-23T02:16:53;12.90;;;6.17;;
289;SDS011;13193;48.874;9.086;2022-07-23T02:19:23;10.23;;;6.60;;
289;SDS011;13193;48.874;9.086;2022-07-23T02:21:52;8.37;;;5.63;;
289;SDS011;13193;48.874;9.086;2022-07-23T02:24:22;14.33;;;6.00;;
289;SDS011;13193;48.874;9.086;2022-07-23T02:26:50;10.07;;;5.90;;
289;SDS011;13193;48.874;9.086;2022-07-23T02:29:16;7.50;;;6.23;;
289;SDS011;13193;48.874;9.086;2022-07-23T02:31:42;7.70;;;5.63;;
289;SDS011;13193;48.874;9.086;2022-07-23T02:34:15;12.03;;;6.30;;
289;SDS011;13193;48.874;9.086;2022-07-23T02:36:48;8.40;;;6.00;;
289;SDS011;13193;48.874;9.086;2022-07-23T02:39:14;8.47;;;6.20;;
289;SDS011;13193;48.874;9.086;2022-07-23T02:41:40;15.40;;;7.07;;
289;SDS011;13193;48.874;9.086;2022-07-23T02:44:13;10.13;;;5.63;;
289;SDS011;13193;48.874;9.086;2022-07-23T02:46:41;10.47;;;6.17;;
289;SDS011;13193;48.874;9.086;2022-07-23T02:49:06;8.33;;;5.87;;
289;SDS011;13193;48.874;9.086;2022-07-23T02:51:34;9.53;;;5.83;;
289;SDS011;13193;48.874;9.086;2022-07-23T02:54:00;10.93;;;6.50;;
289;SDS011;13193;48.874;9.086;2022-07-23T02:56:25;9.53;;;6.47;;
289;SDS011;13193;48.874;9.086;2022-07-23T02:58:51;9.17;;;6.50;;
289;SDS011;13193;48.874;9.086;2022-07-23T03:01:19;18.40;;;6.63;;
289;SDS011;13193;48.874;9.086;2022-07-23T03:03:44;9.43;;;6.50;;
289;SDS011;13193;48.874;9.086;2022-07-23T03:06:10;15.47;;;6.57;;
289;SDS011;13193;48.874;9.086;2022-07-23T03:08:41;10.37;;;6.90;;
289;SDS011;13193;48.874;9.086;2022-07-23T03:11:08;12.67;;;6.50;;
289;SDS011;13193;48.874;9.086;2022-07-23T03:13:39;11.33;;;6.37;;
289;SDS011;13193;48.874;9.086;2022-07-23T03:16:06;13.60;;;6.87;;
289;SDS011;13193;48.874;9.086;2022-07-23T03:18:32;13.90;;;7.13;;
289;SDS011;13193;48.874;9.086;2022-07-23T03:21:01;9.63;;;6.87;;
289;SDS011;13193;48.874;9.086;2022-07-23T03:23:27;9.17;;;7.10;;
289;SDS011;13193;48.874;9.086;2022-07-23T03:25:55;10.33;;;5.57;;
289;SDS011;13193;48.874;9.086;2022-07-23T03:28:23;13.60;;;7.23;;
289;SDS011;13193;48.874;9.086;2022-07-23T03:30:57;9.40;;;6.17;;
289;SDS011;13193;48.874;9.086;2022-07-23T03:33:23;9.83;;;6.07;;
289;SDS011;13193;48.874;9.086;2022-07-23T03:35:49;10.17;;;6.03;;
289;SDS011;13193;48.874;9.086;2022-07-23T03:38:17;9.97;;;6.10;;
289;SDS011;13193;48.874;9.086;2022-07-23T03:40:43;9.67;;;6.70;;
289;SDS011;13193;48.874;9.086;2022-07-23T03:43:11;11.57;;;6.73;;
289;SDS011;13193;48.874;9.086;2022-07-23T03:45:36;13.60;;;6.00;;
289;SDS011;13193;48.874;9.086;2022-07-23T03:48:04;7.57;;;5.43;;
289;SDS011;13193;48.874;9.086;2022-07-23T03:50:34;10.90;;;5.57;;
289;SDS011;13193;48.874;9.086;2022-07-23T03:53:02;9.07;;;5.63;;
289;SDS011;13193;48.874;9.086;2022-07-23T03:55:28;10.47;;;5.97;;
289;SDS011;13193;48.874;9.086;2022-07-23T03:57:54;9.30;;;5.67;;
289;SDS011;13193;48.874;9.086;2022-07-23T04:00:19;11.23;;;6.10;;
289;SDS011;13193;48.874;9.086;2022-07-23T04:02:47;12.23;;;6.80;;
289;SDS011;13193;48.874;9.086;2022-07-23T04:05:13;10.80;;;6.20;;
289;SDS011;13193;48.874;9.086;2022-07-23T04:07:38;9.57;;;6.13;;
289;SDS011;13193;48.874;9.086;2022-07-23T04:10:05;9.60;;;5.90;;
289;SDS011;13193;48.874;9.086;2022-07-23T04:12:32;12.60;;;5.50;;
289;SDS011;13193;48.874;9.086;2022-07-23T04:14:58;8.20;;;6.20;;
289;SDS011;13193;48.874;9.086;2022-07-23T04:17:26;9.90;;;5.83;;
289;SDS011;13193;48.874;9.086;2022-07-23T04:19:53;8.17;;;5.87;;
289;SDS011;13193;48.874;9.086;2022-07-23T04:22:18;12.53;;;7.10;;
289;SDS011;13193;48.874;9.086;2022-07-23T04:24:44;10.43;;;6.63;;
289;SDS011;13193;48.874;9.086;2022-07-23T04:27:10;11.60;;;7.33;;
289;SDS011;13193;48.874;9.086;2022-07-23T04:29:36;9.30;;;6.00;;
289;SDS011;13193;48.874;9.086;2022-07-23T04:32:03;12.00;;;6.97;;
289;SDS011;13193;48.874;9.086;2022-07-23T04:34:29;7.47;;;5.90;;
289;SDS011;13193;48.874;9.086;2022-07-23T04:36:57;11.50;;;6.93;;
289;SDS011;13193;48.874;9.086;2022-07-23T04:39:25;14.57;;;6.07;;
289;SDS011;13193;48.874;9.086;2022-07-23T04:41:53;11.60;;;7.03;;
289;SDS011;13193;48.874;9.086;2022-07-23T04:44:19;7.60;;;5.90;;
289;SDS011;13193;48.874;9.086;2022-07-23T04:46:45;12.10;;;6.17;;
289;SDS011;13193;48.874;9.086;2022-07-23T04:49:10;8.27;;;6.17;;
289;SDS011;13193;48.874;9.086;2022-07-23T04:51:36;10.63;;;5.10;;
289;SDS011;13193;48.874;9.086;2022-07-23T04:54:02;7.40;;;5.47;;
289;SDS011;13193;48.874;9.086;2022-07-23T04:56:27;10.70;;;5.77;;
289;SDS011;13193;48.874;9.086;2022-07-23T04:58:53;18.93;;;7.73;;
289;SDS011;13193;48.874;9.086;2022-07-23T05:01:19;14.87;;;6.60;;
289;SDS011;13193;48.874;9.086;2022-07-23T05:03:44;12.70;;;6.87;;
289;SDS011;13193;48.874;9.086;2022-07-23T05:06:10;10.40;;;5.97;;
289;SDS011;13193;48.874;9.086;2022-07-23T05:08:36;10.07;;;6.00;;
289;SDS011;13193;48.874;9.086;2022-07-23T05:11:03;7.20;;;5.50;;
289;SDS011;13193;48.874;9.086;2022-07-23T05:13:29;8.70;;;5.90;;
289;SDS011;13193;48.874;9.086;2022-07-23T05:15:55;9.30;;;6.10;;
289;SDS011;13193;48.874;9.086;2022-07-23T05:18:21;10.00;;;6.60;;
289;SDS011;13193;48.874;9.086;2022-07-23T05:20:46;11.07;;;6.90;;
289;SDS011;13193;48.874;9.086;2022-07-23T05:23:12;9.27;;;6.20;;
289;SDS011;13193;48.874;9.086;2022-07-23T05:25:38;11.93;;;5.50;;
289;SDS011;13193;48.874;9.086;2022-07-23T05:28:04;12.37;;;7.10;;
289;SDS011;13193;48.874;9.086;2022-07-23T05:30:30;9.47;;;6.67;;
289;SDS011;13193;48.874;9.086;2022-07-23T05:32:56;12.13;;;7.20;;
289;SDS011;13193;48.874;9.086;2022-07-23T05:35:21;10.30;;;6.70;;
289;SDS011;13193;48.874;9.086;2022-07-23T05:37:47;11.77;;;7.37;;
289;SDS011;13193;48.874;9.086;2022-07-23T05:40:13;11.10;;;6.23;;
289;SDS011;13193;48.874;9.086;2022-07-23T05:42:39;12.30;;;6.87;;
289;SDS011;13193;48.874;9.086;2022-07-23T05:45:05;8.90;;;6.27;;
289;SDS011;13193;48.874;9.086;2022-07-23T05:50:15;9.60;;;6.60;;
289;SDS011;13193;48.874;9.086;2022-07-23T05:52:41;9.70;;;5.80;;
289;SDS011;13193;48.874;9.086;2022-07-23T05:55:08;9.40;;;6.20;;
289;SDS011;13193;48.874;9.086;2022-07-23T05:57:35;10.10;;;6.10;;
289;SDS011;13193;48.874;9.086;2022-07-23T06:00:00;11.33;;;6.83;;
289;SDS011;13193;48.874;9.086;2022-07-23T06:02:29;11.33;;;6.87;;
289;SDS011;13193;48.874;9.086;2022-07-23T06:04:55;9.90;;;6.37;;
289;SDS011;13193;48.874;9.086;2022-07-23T06:07:21;10.33;;;6.70;;
289;SDS011;13193;48.874;9.086;2022-07-23T06:09:46;12.87;;;6.87;;
289;SDS011;13193;48.874;9.086;2022-07-23T06:12:14;11.70;;;6.30;;
289;SDS011;13193;48.874;9.086;2022-07-23T06:14:43;14.63;;;7.33;;
289;SDS011;13193;48.874;9.086;2022-07-23T06:17:08;16.97;;;6.83;;
289;SDS011;13193;48.874;9.086;2022-07-23T06:19:34;15.43;;;7.03;;
289;SDS011;13193;48.874;9.086;2022-07-23T06:22:00;9.47;;;6.50;;
289;SDS011;13193;48.874;9.086;2022-07-23T06:24:25;15.53;;;6.13;;
289;SDS011;13193;48.874;9.086;2022-07-23T06:26:51;9.97;;;6.50;;
289;SDS011;13193;48.874;9.086;2022-07-23T06:29:17;8.93;;;6.33;;
289;SDS011;13193;48.874;9.086;2022-07-23T06:31:47;10.60;;;6.80;;
289;SDS011;13193;48.874;9.086;2022-07-23T06:34:12;10.93;;;6.97;;
289;SDS011;13193;48.874;9.086;2022-07-23T06:36:38;9.20;;;6.37;;
289;SDS011;13193;48.874;9.086;2022-07-23T06:39:06;13.50;;;6.57;;
289;SDS011;13193;48.874;9.086;2022-07-23T06:41:31;11.63;;;7.03;;
289;SDS011;13193;48.874;9.086;2022-07-23T06:43:57;8.97;;;6.80;;
289;SDS011;13193;48.874;9.086;2022-07-23T06:46:23;11.53;;;6.60;;
289;SDS011;13193;48.874;9.086;2022-07-23T06:48:48;10.80;;;6.83;;
289;SDS011;13193;48.874;9.086;2022-07-23T06:51:16;11.50;;;7.20;;
289;SDS011;13193;48.874;9.086;2022-07-23T06:53:42;9.20;;;6.70;;
289;SDS011;13193;48.874;9.086;2022-07-23T06:56:07;10.57;;;6.10;;
289;SDS011;13193;48.874;9.086;2022-07-23T06:58:33;11.87;;;7.70;;
289;SDS011;13193;48.874;9.086;2022-07-23T07:00:59;10.63;;;7.13;;
289;SDS011;13193;48.874;9.086;2022-07-23T07:03:24;10.10;;;7.13;;
289;SDS011;13193;48.874;9.086;2022-07-23T07:05:50;15.63;;;8.20;;
289;SDS011;13193;48.874;9.086;2022-07-23T07:08:17;22.37;;;7.10;;
289;SDS011;13193;48.874;9.086;2022-07-23T07:10:42;12.30;;;7.53;;
289;SDS011;13193;48.874;9.086;2022-07-23T07:13:08;10.57;;;5.83;;
289;SDS011;13193;48.874;9.086;2022-07-23T07:15:33;11.57;;;7.50;;
289;SDS011;13193;48.874;9.086;2022-07-23T07:17:59;12.20;;;7.10;;
289;SDS011;13193;48.874;9.086;2022-07-23T07:20:25;14.40;;;7.00;;
289;SDS011;13193;48.874;9.086;2022-07-23T07:22:51;18.73;;;8.53;;
289;SDS011;13193;48.874;9.086;2022-07-23T07:25:16;14.00;;;7.87;;
289;SDS011;13193;48.874;9.086;2022-07-23T07:27:43;12.27;;;7.83;;
289;SDS011;13193;48.874;9.086;2022-07-23T07:30:11;11.57;;;7.50;;
289;SDS011;13193;48.874;9.086;2022-07-23T07:32:38;13.23;;;8.30;;
289;SDS011;13193;48.874;9.086;2022-07-23T07:35:04;13.23;;;7.47;;
289;SDS011;13193;48.874;9.086;2022-07-23T07:37:31;10.20;;;8.17;;
289;SDS011;13193;48.874;9.086;2022-07-23T07:39:57;12.93;;;8.43;;
289;SDS011;13193;48.874;9.086;2022-07-23T07:42:22;14.73;;;8.30;;
289;SDS011;13193;48.874;9.086;2022-07-23T07:44:48;13.00;;;8.87;;
289;SDS011;13193;48.874;9.086;2022-07-23T07:47:14;14.27;;;9.13;;
289;SDS011;13193;48.874;9.086;2022-07-23T07:49:40;21.80;;;9.83;;
289;SDS011;13193;48.874;9.086;2022-07-23T07:52:09;18.17;;;9.50;;
289;SDS011;13193;48.874;9.086;2022-07-23T07:54:35;15.37;;;10.10;;
289;SDS011;13193;48.874;9.086;2022-07-23T07:57:01;19.03;;;10.70;;
289;SDS011;13193;48.874;9.086;2022-07-23T07:59:29;14.87;;;8.90;;
289;SDS011;13193;48.874;9.086;2022-07-23T08:01:55;16.87;;;8.57;;
289;SDS011;13193;48.874;9.086;2022-07-23T08:04:21;12.00;;;8.27;;
289;SDS011;13193;48.874;9.086;2022-07-23T08:06:49;13.67;;;7.30;;
289;SDS011;13193;48.874;9.086;2022-07-23T08:09:17;13.73;;;8.43;;
289;SDS011;13193;48.874;9.086;2022-07-23T08:11:43;21.40;;;8.10;;
289;SDS011;13193;48.874;9.086;2022-07-23T08:14:09;13.63;;;8.37;;
289;SDS011;13193;48.874;9.086;2022-07-23T08:16:36;12.53;;;7.63;;
289;SDS011;13193;48.874;9.086;2022-07-23T08:19:04;11.53;;;7.60;;
289;SDS011;13193;48.874;9.086;2022-07-23T08:21:29;15.67;;;8.27;;
289;SDS011;13193;48.874;9.086;2022-07-23T08:23:58;13.60;;;7.13;;
289;SDS011;13193;48.874;9.086;2022-07-23T08:26:23;14.90;;;7.60;;
289;SDS011;13193;48.874;9.086;2022-07-23T08:28:49;14.00;;;8.97;;
289;SDS011;13193;48.874;9.086;2022-07-23T08:31:17;13.50;;;7.37;;
289;SDS011;13193;48.874;9.086;2022-07-23T08:33:46;11.30;;;7.90;;
289;SDS011;13193;48.874;9.086;2022-07-23T08:36:12;10.77;;;7.60;;
289;SDS011;13193;48.874;9.086;2022-07-23T08:38:40;9.93;;;7.50;;
289;SDS011;13193;48.874;9.086;2022-07-23T08:41:08;8.00;;;5.97;;
289;SDS011;13193;48.874;9.086;2022-07-23T08:43:34;8.67;;;5.40;;
289;SDS011;13193;48.874;9.086;2022-07-23T08:46:01;8.30;;;6.00;;
289;SDS011;13193;48.874;9.086;2022-07-23T08:48:29;10.00;;;6.77;;
289;SDS011;13193;48.874;9.086;2022-07-23T08:51:02;10.13;;;7.40;;
289;SDS011;13193;48.874;9.086;2022-07-23T08:53:33;8.80;;;6.47;;
289;SDS011;13193;48.874;9.086;2022-07-23T08:56:04;13.43;;;6.40;;
289;SDS011;13193;48.874;9.086;2022-07-23T08:58:30;9.37;;;6.10;;
289;SDS011;13193;48.874;9.086;2022-07-23T09:00:56;10.67;;;5.73;;
289;SDS011;13193;48.874;9.086;2022-07-23T09:03:31;10.90;;;6.40;;
289;SDS011;13193;48.874;9.086;2022-07-23T09:05:58;8.07;;;6.13;;
289;SDS011;13193;48.874;9.086;2022-07-23T09:08:34;15.43;;;6.17;;
289;SDS011;13193;48.874;9.086;2022-07-23T09:11:15;10.80;;;6.57;;
289;SDS011;13193;48.874;9.086;2022-07-23T09:13:53;9.60;;;7.00;;
289;SDS011;13193;48.874;9.086;2022-07-23T09:16:29;8.63;;;6.47;;
289;SDS011;13193;48.874;9.086;2022-07-23T09:18:57;12.80;;;5.63;;
289;SDS011;13193;48.874;9.086;2022-07-23T09:21:26;9.87;;;6.63;;
289;SDS011;13193;48.874;9.086;2022-07-23T09:24:00;11.93;;;6.70;;
289;SDS011;13193;48.874;9.086;2022-07-23T09:26:42;9.63;;;6.43;;
289;SDS011;13193;48.874;9.086;2022-07-23T09:29:21;9.80;;;6.00;;
289;SDS011;13193;48.874;9.086;2022-07-23T09:31:50;6.80;;;5.40;;
289;SDS011;13193;48.874;9.086;2022-07-23T09:34:24;14.00;;;6.40;;
289;SDS011;13193;48.874;9.086;2022-07-23T09:36:55;7.23;;;5.47;;
289;SDS011;13193;48.874;9.086;2022-07-23T09:39:34;7.43;;;5.43;;
289;SDS011;13193;48.874;9.086;2022-07-23T09:42:13;14.97;;;7.27;;
289;SDS011;13193;48.874;9.086;2022-07-23T09:44:43;10.60;;;6.63;;
289;SDS011;13193;48.874;9.086;2022-07-23T09:47:10;10.07;;;5.57;;
289;SDS011;13193;48.874;9.086;2022-07-23T09:49:35;8.40;;;5.93;;
289;SDS011;13193;48.874;9.086;2022-07-23T09:52:02;9.93;;;5.93;;
289;SDS011;13193;48.874;9.086;2022-07-23T09:54:29;15.90;;;6.87;;
289;SDS011;13193;48.874;9.086;2022-07-23T09:56:58;9.10;;;5.30;;
289;SDS011;13193;48.874;9.086;2022-07-23T09:59:27;7.90;;;5.80;;
289;SDS011;13193;48.874;9.086;2022-07-23T10:01:56;9.00;;;6.10;;
289;SDS011;13193;48.874;9.086;2022-07-23T10:04:24;7.87;;;5.33;;
289;SDS011;13193;48.874;9.086;2022-07-23T10:06:57;9.80;;;6.23;;
289;SDS011;13193;48.874;9.086;2022-07-23T10:09:26;9.97;;;6.30;;
289;SDS011;13193;48.874;9.086;2022-07-23T10:11:57;10.70;;;6.53;;
289;SDS011;13193;48.874;9.086;2022-07-23T10:14:42;11.17;;;7.03;;
289;SDS011;13193;48.874;9.086;2022-07-23T10:17:08;7.80;;;5.70;;
289;SDS011;13193;48.874;9.086;2022-07-23T10:19:34;7.73;;;5.57;;
289;SDS011;13193;48.874;9.086;2022-07-23T10:22:04;9.47;;;5.73;;
289;SDS011;13193;48.874;9.086;2022-07-23T10:27:37;11.30;;;6.53;;
289;SDS011;13193;48.874;9.086;2022-07-23T10:35:53;10.37;;;6.17;;
289;SDS011;13193;48.874;9.086;2022-07-23T10:41:13;6.63;;;5.70;;
289;SDS011;13193;48.874;9.086;2022-07-23T10:43:40;7.23;;;4.93;;
289;SDS011;13193;48.874;9.086;2022-07-23T10:46:22;9.27;;;6.60;;
289;SDS011;13193;48.874;9.086;2022-07-23T10:49:20;8.17;;;6.17;;
289;SDS011;13193;48.874;9.086;2022-07-23T10:54:45;9.00;;;5.50;;
289;SDS011;13193;48.874;9.086;2022-07-23T10:57:11;7.23;;;4.97;;
289;SDS011;13193;48.874;9.086;2022-07-23T11:02:26;8.13;;;5.80;;
289;SDS011;13193;48.874;9.086;2022-07-23T11:04:58;9.23;;;6.47;;
289;SDS011;13193;48.874;9.086;2022-07-23T11:07:25;7.13;;;5.13;;
289;SDS011;13193;48.874;9.086;2022-07-23T11:09:53;5.93;;;4.80;;
289;SDS011;13193;48.874;9.086;2022-07-23T11:17:34;12.53;;;6.60;;
289;SDS011;13193;48.874;9.086;2022-07-23T11:20:19;10.53;;;5.43;;
289;SDS011;13193;48.874;9.086;2022-07-23T11:22:49;6.40;;;5.33;;
289;SDS011;13193;48.874;9.086;2022-07-23T11:27:52;13.33;;;6.70;;
289;SDS011;13193;48.874;9.086;2022-07-23T11:32:54;8.67;;;6.90;;
289;SDS011;13193;48.874;9.086;2022-07-23T11:35:44;7.53;;;5.43;;
289;SDS011;13193;48.874;9.086;2022-07-23T11:38:21;15.23;;;5.30;;
289;SDS011;13193;48.874;9.086;2022-07-23T11:40:54;11.30;;;6.23;;
289;SDS011;13193;48.874;9.086;2022-07-23T11:43:23;9.10;;;5.40;;
289;SDS011;13193;48.874;9.086;2022-07-23T11:45:51;8.50;;;6.20;;
289;SDS011;13193;48.874;9.086;2022-07-23T11:50:48;9.87;;;5.60;;
289;SDS011;13193;48.874;9.086;2022-07-23T11:53:26;8.50;;;6.20;;
289;SDS011;13193;48.874;9.086;2022-07-23T11:55:57;8.90;;;6.70;;
289;SDS011;13193;48.874;9.086;2022-07-23T11:58:35;9.70;;;6.50;;
289;SDS011;13193;48.874;9.086;2022-07-23T12:01:01;10.43;;;6.20;;
289;SDS011;13193;48.874;9.086;2022-07-23T12:03:27;11.20;;;7.10;;
289;SDS011;13193;48.874;9.086;2022-07-23T12:05:56;9.73;;;6.67;;
289;SDS011;13193;48.874;9.086;2022-07-23T12:08:22;8.30;;;6.20;;
289;SDS011;13193;48.874;9.086;2022-07-23T12:10:48;9.67;;;6.23;;
289;SDS011;13193;48.874;9.086;2022-07-23T12:13:15;10.47;;;6.60;;
289;SDS011;13193;48.874;9.086;2022-07-23T12:15:44;8.67;;;5.50;;
289;SDS011;13193;48.874;9.086;2022-07-23T12:18:12;8.80;;;6.17;;
289;SDS011;13193;48.874;9.086;2022-07-23T12:20:44;14.03;;;5.80;;
289;SDS011;13193;48.874;9.086;2022-07-23T12:23:14;10.47;;;7.27;;
289;SDS011;13193;48.874;9.086;2022-07-23T12:25:42;10.40;;;6.77;;
289;SDS011;13193;48.874;9.086;2022-07-23T12:28:14;11.03;;;6.43;;
289;SDS011;13193;48.874;9.086;2022-07-23T12:30:45;10.53;;;6.30;;
289;SDS011;13193;48.874;9.086;2022-07-23T12:33:13;9.57;;;6.50;;
289;SDS011;13193;48.874;9.086;2022-07-23T12:35:46;10.37;;;5.13;;
289;SDS011;13193;48.874;9.086;2022-07-23T12:38:14;8.97;;;6.37;;
289;SDS011;13193;48.874;9.086;2022-07-23T12:40:45;14.13;;;6.37;;
289;SDS011;13193;48.874;9.086;2022-07-23T12:45:56;9.60;;;7.00;;
289;SDS011;13193;48.874;9.086;2022-07-23T12:48:30;10.67;;;6.93;;
289;SDS011;13193;48.874;9.086;2022-07-23T12:53:38;9.83;;;6.30;;
289;SDS011;13193;48.874;9.086;2022-07-23T12:56:16;7.93;;;5.80;;
289;SDS011;13193;48.874;9.086;2022-07-23T12:58:47;11.90;;;7.03;;
289;SDS011;13193;48.874;9.086;2022-07-23T13:06:34;12.03;;;7.30;;
289;SDS011;13193;48.874;9.086;2022-07-23T13:09:02;9.20;;;6.90;;
289;SDS011;13193;48.874;9.086;2022-07-23T13:11:29;10.53;;;7.10;;
289;SDS011;13193;48.874;9.086;2022-07-23T13:13:55;8.67;;;6.70;;
289;SDS011;13193;48.874;9.086;2022-07-23T13:16:25;14.07;;;7.70;;
289;SDS011;13193;48.874;9.086;2022-07-23T13:18:54;17.03;;;7.80;;
289;SDS011;13193;48.874;9.086;2022-07-23T13:21:23;11.93;;;9.17;;
289;SDS011;13193;48.874;9.086;2022-07-23T13:23:49;8.77;;;7.10;;
289;SDS011;13193;48.874;9.086;2022-07-23T13:26:15;13.10;;;8.20;;
289;SDS011;13193;48.874;9.086;2022-07-23T13:28:41;13.37;;;8.90;;
289;SDS011;13193;48.874;9.086;2022-07-23T13:31:07;14.87;;;8.90;;
289;SDS011;13193;48.874;9.086;2022-07-23T13:33:33;12.93;;;8.00;;
289;SDS011;13193;48.874;9.086;2022-07-23T13:35:59;12.73;;;7.90;;
289;SDS011;13193;48.874;9.086;2022-07-23T13:38:25;10.23;;;6.30;;
289;SDS011;13193;48.874;9.086;2022-07-23T13:40:51;10.67;;;6.77;;
289;SDS011;13193;48.874;9.086;2022-07-23T13:43:21;9.67;;;7.73;;
289;SDS011;13193;48.874;9.086;2022-07-23T13:45:48;12.57;;;7.50;;
289;SDS011;13193;48.874;9.086;2022-07-23T13:48:14;10.97;;;7.40;;
289;SDS011;13193;48.874;9.086;2022-07-23T13:50:41;10.93;;;6.93;;
289;SDS011;13193;48.874;9.086;2022-07-23T13:53:09;11.13;;;7.00;;
289;SDS011;13193;48.874;9.086;2022-07-23T13:55:38;13.30;;;7.70;;
289;SDS011;13193;48.874;9.086;2022-07-23T13:58:05;10.03;;;6.73;;
289;SDS011;13193;48.874;9.086;2022-07-23T14:00:32;10.53;;;8.23;;
289;SDS011;13193;48.874;9.086;2022-07-23T14:02:59;11.03;;;7.10;;
289;SDS011;13193;48.874;9.086;2022-07-23T14:05:26;9.93;;;7.20;;
289;SDS011;13193;48.874;9.086;2022-07-23T14:07:52;8.13;;;6.47;;
289;SDS011;13193;48.874;9.086;2022-07-23T14:10:19;14.70;;;7.70;;
289;SDS011;13193;48.874;9.086;2022-07-23T14:12:46;11.80;;;8.40;;
289;SDS011;13193;48.874;9.086;2022-07-23T14:15:13;8.90;;;6.93;;
289;SDS011;13193;48.874;9.086;2022-07-23T14:17:40;11.23;;;7.50;;
289;SDS011;13193;48.874;9.086;2022-07-23T14:20:08;10.37;;;6.83;;
289;SDS011;13193;48.874;9.086;2022-07-23T14:22:34;12.77;;;7.30;;
289;SDS011;13193;48.874;9.086;2022-07-23T14:25:01;11.63;;;8.43;;
289;SDS011;13193;48.874;9.086;2022-07-23T14:27:27;10.27;;;6.70;;
289;SDS011;13193;48.874;9.086;2022-07-23T14:29:54;13.00;;;7.77;;
289;SDS011;13193;48.874;9.086;2022-07-23T14:32:19;12.23;;;6.07;;
289;SDS011;13193;48.874;9.086;2022-07-23T14:34:46;9.57;;;6.93;;
289;SDS011;13193;48.874;9.086;2022-07-23T14:37:11;11.80;;;6.73;;
289;SDS011;13193;48.874;9.086;2022-07-23T14:39:41;9.10;;;6.60;;
289;SDS011;13193;48.874;9.086;2022-07-23T14:42:08;10.33;;;6.93;;
289;SDS011;13193;48.874;9.086;2022-07-23T14:44:34;10.00;;;6.90;;
289;SDS011;13193;48.874;9.086;2022-07-23T14:47:00;12.37;;;8.50;;
289;SDS011;13193;48.874;9.086;2022-07-23T14:49:30;7.70;;;5.90;;
289;SDS011;13193;48.874;9.086;2022-07-23T14:51:59;8.67;;;5.90;;
289;SDS011;13193;48.874;9.086;2022-07-23T14:54:25;9.20;;;7.27;;
289;SDS011;13193;48.874;9.086;2022-07-23T14:56:55;10.50;;;6.87;;
289;SDS011;13193;48.874;9.086;2022-07-23T14:59:24;11.00;;;7.37;;
289;SDS011;13193;48.874;9.086;2022-07-23T15:01:50;8.80;;;6.83;;
289;SDS011;13193;48.874;9.086;2022-07-23T15:04:16;10.30;;;7.10;;
289;SDS011;13193;48.874;9.086;2022-07-23T15:06:41;13.00;;;7.20;;
289;SDS011;13193;48.874;9.086;2022-07-23T15:09:07;8.70;;;7.10;;
289;SDS011;13193;48.874;9.086;2022-07-23T15:11:33;9.77;;;7.20;;
289;SDS011;13193;48.874;9.086;2022-07-23T15:14:01;8.63;;;5.80;;
289;SDS011;13193;48.874;9.086;2022-07-23T15:16:27;13.53;;;6.50;;
289;SDS011;13193;48.874;9.086;2022-07-23T15:18:53;12.77;;;7.37;;
289;SDS011;13193;48.874;9.086;2022-07-23T15:21:19;10.47;;;6.97;;
289;SDS011;13193;48.874;9.086;2022-07-23T15:23:44;13.03;;;6.80;;
289;SDS011;13193;48.874;9.086;2022-07-23T15:26:10;12.53;;;7.93;;
289;SDS011;13193;48.874;9.086;2022-07-23T15:28:36;10.50;;;6.50;;
289;SDS011;13193;48.874;9.086;2022-07-23T15:31:02;11.90;;;6.80;;
289;SDS011;13193;48.874;9.086;2022-07-23T15:33:28;9.60;;;6.80;;
289;SDS011;13193;48.874;9.086;2022-07-23T15:35:54;9.17;;;6.77;;
289;SDS011;13193;48.874;9.086;2022-07-23T15:38:21;7.97;;;6.73;;
289;SDS011;13193;48.874;9.086;2022-07-23T15:40:47;12.40;;;7.23;;
289;SDS011;13193;48.874;9.086;2022-07-23T15:43:12;9.10;;;6.77;;
289;SDS011;13193;48.874;9.086;2022-07-23T15:45:39;14.07;;;7.00;;
289;SDS011;13193;48.874;9.086;2022-07-23T15:48:05;10.97;;;6.30;;
289;SDS011;13193;48.874;9.086;2022-07-23T15:50:31;10.20;;;6.33;;
289;SDS011;13193;48.874;9.086;2022-07-23T15:52:56;10.40;;;7.47;;
289;SDS011;13193;48.874;9.086;2022-07-23T15:55:22;11.00;;;7.27;;